Time;durP1;ratioP1;P1;durP2;ratioP2;P2;SDS_P1;SDS_P2;PMS_P1;PMS_P2;Temp;Humidity;BMP_temperature;BMP_pressure;BME280_temperature;BME280_humidity;BME280_pressure;Samples;Min_cycle;Max_cycle;Signal;HPM_P1;HPM_P2
2022/08/25 00:02:19;;;;;;;44.20;42.33;;;;;;;21.13;79.35;101828.16;5074811;28;20452;-74
2022/08/25 00:04:45;;;;;;;45.00;42.92;;;;;;;21.14;78.91;101835.16;5082215;28;20024;-74
2022/08/25 00:07:11;;;;;;;50.85;48.72;;;;;;;21.18;78.19;101841.81;5070921;28;20033;-74
2022/08/25 00:09:36;;;;;;;45.03;43.15;;;;;;;21.19;77.75;101848.84;5088986;28;20043;-74
2022/08/25 00:12:03;;;;;;;44.10;42.08;;;;;;;21.21;77.36;101844.13;5074813;28;20033;-75
2022/08/25 00:14:33;;;;;;;44.33;42.42;;;;;;;21.23;76.55;101839.38;5080588;28;20420;-74
2022/08/25 00:17:00;;;;;;;41.97;40.17;;;;;;;21.22;76.81;101843.09;5085018;28;20027;-74
2022/08/25 00:19:30;;;;;;;42.72;40.95;;;;;;;21.09;76.44;101821.53;5081342;28;20039;-74
2022/08/25 00:21:56;;;;;;;41.80;40.05;;;;;;;21.24;76.02;101843.72;5083415;28;20400;-74
2022/08/25 00:24:23;;;;;;;44.30;42.00;;;;;;;21.21;75.98;101841.44;5081707;28;20020;-75
2022/08/25 00:26:52;;;;;;;43.65;41.92;;;;;;;21.21;75.60;101844.13;5078362;28;20404;-74
2022/08/25 00:29:18;;;;;;;41.40;39.63;;;;;;;21.20;75.98;101839.75;5073692;28;20036;-74
2022/08/25 00:31:44;;;;;;;44.58;42.70;;;;;;;21.21;75.92;101840.59;5083288;28;20042;-74
2022/08/25 00:34:17;;;;;;;43.50;41.67;;;;;;;21.16;75.59;101843.84;5076834;28;20558;-74
2022/08/25 00:36:44;;;;;;;41.38;39.58;;;;;;;21.15;75.68;101852.94;5084138;28;20396;-75
2022/08/25 00:39:10;;;;;;;45.95;43.95;;;;;;;21.10;75.38;101848.19;5077758;28;20112;-75
2022/08/25 00:41:37;;;;;;;40.45;38.80;;;;;;;21.07;76.21;101839.66;5078726;28;20039;-74
2022/08/25 00:44:05;;;;;;;42.97;41.15;;;;;;;21.00;75.96;101833.44;5082292;28;20030;-74
2022/08/25 00:46:41;;;;;;;42.70;40.80;;;;;;;20.93;75.52;101831.53;5078693;28;20558;-74
2022/08/25 00:49:14;;;;;;;39.03;37.10;;;;;;;20.95;75.48;101842.91;5087867;28;20365;-74
2022/08/25 00:52:02;;;;;;;38.78;37.15;;;;;;;20.87;75.69;101840.34;5085069;28;20015;-74
2022/08/25 00:54:33;;;;;;;38.70;37.05;;;;;;;20.99;75.93;101848.72;5076172;28;20028;-73
2022/08/25 00:57:00;;;;;;;40.15;38.53;;;;;;;20.95;75.24;101853.63;5075129;28;20087;-74
2022/08/25 00:59:26;;;;;;;43.42;41.60;;;;;;;20.85;75.09;101841.56;5086207;28;20040;-74
2022/08/25 01:01:53;;;;;;;36.45;34.88;;;;;;;20.88;75.42;101850.06;5078029;28;20032;-74
2022/08/25 01:04:19;;;;;;;38.05;36.35;;;;;;;20.85;75.89;101845.06;5077597;28;20435;-75
2022/08/25 01:06:47;;;;;;;36.55;34.92;;;;;;;20.79;74.93;101840.47;5070208;28;20066;-74
2022/08/25 01:09:14;;;;;;;44.40;41.67;;;;;;;20.88;74.70;101858.13;5083944;28;20050;-74
2022/08/25 01:11:41;;;;;;;36.70;35.20;;;;;;;20.86;74.97;101854.81;5059777;28;20044;-74
2022/08/25 01:14:08;;;;;;;37.45;35.75;;;;;;;20.83;75.46;101857.84;5078956;28;20055;-74
2022/08/25 01:16:36;;;;;;;37.35;35.80;;;;;;;20.82;75.62;101856.22;5082392;28;20099;-74
2022/08/25 01:19:04;;;;;;;36.70;35.28;;;;;;;20.73;75.43;101851.97;5076634;28;20020;-74
2022/08/25 01:21:36;;;;;;;37.60;36.05;;;;;;;20.73;75.36;101854.66;5074278;28;20024;-74
2022/08/25 01:24:02;;;;;;;43.25;41.50;;;;;;;20.65;75.90;101854.81;5075317;28;20051;-74
2022/08/25 01:26:31;;;;;;;39.22;37.53;;;;;;;20.51;76.19;101841.25;5077106;28;20063;-74
2022/08/25 01:31:42;;;;;;;37.03;35.53;;;;;;;20.47;77.07;101849.84;5082449;28;20097;-74
2022/08/25 01:34:11;;;;;;;39.78;38.00;;;;;;;20.42;76.94;101846.91;5079586;28;20486;-74
2022/08/25 01:36:37;;;;;;;44.90;43.10;;;;;;;20.40;77.17;101852.47;5076562;28;20502;-74
2022/08/25 01:39:03;;;;;;;36.60;35.15;;;;;;;20.32;77.55;101847.25;5080516;28;20016;-74
2022/08/25 01:41:28;;;;;;;35.78;34.22;;;;;;;20.31;77.59;101857.13;5078891;28;20029;-74
2022/08/25 01:43:54;;;;;;;39.40;37.42;;;;;;;20.17;77.92;101838.41;5074924;28;20488;-74
2022/08/25 01:46:19;;;;;;;35.03;33.40;;;;;;;20.20;78.85;101848.75;5078313;28;20040;-74
2022/08/25 01:48:44;;;;;;;39.58;37.90;;;;;;;20.08;78.30;101830.50;5075648;28;20050;-74
2022/08/25 01:51:10;;;;;;;39.85;38.10;;;;;;;20.00;78.13;101822.56;5062602;28;20035;-74
2022/08/25 01:53:35;;;;;;;37.85;35.83;;;;;;;20.09;78.45;101844.72;5042232;28;20025;-73
2022/08/25 01:56:10;;;;;;;39.33;37.67;;;;;;;20.06;78.54;101843.25;5067080;28;20081;-75
2022/08/25 01:58:38;;;;;;;32.78;31.30;;;;;;;20.08;77.83;101846.56;5071351;28;20025;-74
2022/08/25 02:01:07;;;;;;;34.20;32.60;;;;;;;20.13;76.97;101844.13;5071466;28;20476;-74
2022/08/25 02:03:37;;;;;;;35.00;33.47;;;;;;;20.14;77.13;101845.81;5077357;28;20428;-74
2022/08/25 02:06:03;;;;;;;38.63;36.80;;;;;;;20.05;77.74;101825.50;5086617;28;20054;-74
2022/08/25 02:08:29;;;;;;;38.08;36.17;;;;;;;20.12;77.21;101841.63;5064848;28;20040;-74
2022/08/25 02:10:54;;;;;;;35.83;34.33;;;;;;;20.13;77.10;101833.41;5075277;28;20034;-74
2022/08/25 02:13:20;;;;;;;38.78;37.17;;;;;;;20.16;77.14;101829.53;5072617;28;20470;-74
2022/08/25 02:15:50;;;;;;;38.13;36.53;;;;;;;20.16;77.35;101834.88;5075564;28;20070;-75
2022/08/25 02:18:16;;;;;;;37.58;36.05;;;;;;;20.17;77.49;101838.41;5076783;28;20075;-74
2022/08/25 02:20:41;;;;;;;36.40;34.83;;;;;;;20.18;77.67;101840.06;5069789;28;20078;-74
2022/08/25 02:23:07;;;;;;;34.65;33.22;;;;;;;20.16;77.58;101839.44;5073306;28;20446;-74
2022/08/25 02:25:33;;;;;;;34.67;33.03;;;;;;;20.11;77.72;101829.28;5076287;28;20040;-74
2022/08/25 02:27:59;;;;;;;35.80;34.08;;;;;;;20.11;78.26;101842.69;5084161;28;20028;-74
2022/08/25 02:30:25;;;;;;;37.92;36.20;;;;;;;20.03;78.42;101832.88;5082569;28;20039;-74
2022/08/25 02:32:51;;;;;;;38.53;36.85;;;;;;;19.99;78.46;101837.00;5074168;28;20050;-74
2022/08/25 02:35:17;;;;;;;40.65;38.92;;;;;;;19.96;79.23;101829.31;5075257;28;20024;-74
2022/08/25 02:37:42;;;;;;;37.90;36.20;;;;;;;19.90;78.60;101830.06;5078531;28;20044;-73
2022/08/25 02:40:09;;;;;;;32.35;30.92;;;;;;;19.88;78.77;101829.41;5072998;28;20366;-74
2022/08/25 02:42:34;;;;;;;34.95;33.55;;;;;;;19.83;79.41;101821.13;5072124;28;20485;-74
2022/08/25 02:44:59;;;;;;;37.70;36.00;;;;;;;19.86;79.15;101834.97;5072463;28;20052;-73
2022/08/25 02:47:25;;;;;;;36.78;35.28;;;;;;;19.74;79.20;101812.34;5072313;28;20387;-74
2022/08/25 02:49:51;;;;;;;34.35;32.92;;;;;;;19.83;79.31;101823.78;5055406;28;20051;-73
2022/08/25 02:52:17;;;;;;;33.08;31.75;;;;;;;19.76;79.64;101825.56;5082589;28;20381;-74
2022/08/25 02:54:43;;;;;;;33.20;31.80;;;;;;;19.75;79.32;101827.44;5054473;28;20028;-74
2022/08/25 02:57:10;;;;;;;37.55;35.50;;;;;;;19.72;79.92;101825.09;5075957;28;20032;-74
2022/08/25 02:59:36;;;;;;;35.28;33.72;;;;;;;19.68;79.67;101829.13;5074184;28;20097;-74
2022/08/25 03:02:02;;;;;;;37.47;35.95;;;;;;;19.66;80.00;101820.44;5064655;28;20083;-74
2022/08/25 03:04:28;;;;;;;38.15;36.47;;;;;;;19.61;79.97;101826.38;5078303;28;20028;-74
2022/08/25 03:06:53;;;;;;;40.83;38.65;;;;;;;19.58;80.26;101821.41;5072375;28;20067;-74
2022/08/25 03:09:19;;;;;;;42.80;40.88;;;;;;;19.58;80.27;101824.06;5086230;28;20073;-74
2022/08/25 03:11:45;;;;;;;37.80;36.30;;;;;;;19.58;80.31;101829.44;5078058;28;20084;-74
2022/08/25 03:14:11;;;;;;;37.40;35.75;;;;;;;19.55;80.49;101829.78;5084395;28;20024;-75
2022/08/25 03:16:37;;;;;;;41.20;39.47;;;;;;;19.53;80.36;101829.13;5082439;28;20165;-73
2022/08/25 03:19:03;;;;;;;39.88;38.15;;;;;;;19.53;80.33;101826.47;5061110;28;20031;-74
2022/08/25 03:21:29;;;;;;;43.85;42.00;;;;;;;19.50;80.54;101824.16;5076089;28;20427;-74
2022/08/25 03:23:56;;;;;;;42.53;40.78;;;;;;;19.45;80.95;101824.72;5081145;28;20373;-74
2022/08/25 03:29:06;;;;;;;46.38;44.03;;;;;;;19.42;80.90;101825.06;5079945;28;20039;-73
2022/08/25 03:31:33;;;;;;;53.28;50.88;;;;;;;19.40;80.99;101820.94;5081052;28;20105;-74
2022/08/25 03:33:59;;;;;;;46.45;44.47;;;;;;;19.38;80.68;101823.81;5076575;28;20531;-74
2022/08/25 03:36:26;;;;;;;44.67;42.58;;;;;;;19.39;81.16;101824.63;5080958;28;20037;-74
2022/08/25 03:38:52;;;;;;;52.22;49.92;;;;;;;19.24;81.53;101795.19;5074349;28;20059;-74
2022/08/25 03:41:21;;;;;;;55.80;53.42;;;;;;;19.35;80.84;101818.81;5072924;28;20039;-74
2022/08/25 03:43:47;;;;;;;54.13;51.80;;;;;;;19.23;81.18;101799.72;5080140;28;20031;-74
2022/08/25 03:46:18;;;;;;;47.83;45.70;;;;;;;19.28;81.30;101818.72;5076997;28;20029;-75
2022/08/25 03:48:44;;;;;;;47.88;45.85;;;;;;;19.25;81.71;101811.06;5076626;28;20035;-74
2022/08/25 03:51:09;;;;;;;53.90;51.47;;;;;;;19.21;81.84;101812.44;5076196;28;20023;-74
2022/08/25 03:53:35;;;;;;;54.75;52.22;;;;;;;19.16;83.15;101809.47;5082877;28;20130;-74
2022/08/25 03:56:00;;;;;;;61.00;58.30;;;;;;;19.10;83.30;101807.56;5059793;28;20028;-74
2022/08/25 03:58:26;;;;;;;65.05;62.00;;;;;;;18.94;83.08;101791.66;5082769;28;20077;-74
2022/08/25 04:00:52;;;;;;;58.92;56.20;;;;;;;19.00;83.40;101796.28;5074538;28;20103;-73
2022/08/25 04:03:17;;;;;;;67.88;65.03;;;;;;;19.00;83.57;101807.81;5066658;28;20114;-73
2022/08/25 04:05:43;;;;;;;63.53;60.65;;;;;;;18.98;84.13;101812.50;5081361;28;20048;-74
2022/08/25 04:08:08;;;;;;;69.95;66.93;;;;;;;18.89;84.30;101795.69;5078482;28;20036;-74
2022/08/25 04:10:35;;;;;;;71.45;68.53;;;;;;;18.94;84.65;101805.03;5077466;28;20107;-74
2022/08/25 04:13:01;;;;;;;70.10;66.85;;;;;;;18.81;84.29;101790.41;5082413;28;20431;-74
2022/08/25 04:15:26;;;;;;;73.15;70.10;;;;;;;18.84;84.74;101806.13;5060754;28;20032;-74
2022/08/25 04:17:52;;;;;;;77.93;74.57;;;;;;;18.81;85.42;101793.09;5083201;28;20039;-74
2022/08/25 04:20:18;;;;;;;82.10;78.43;;;;;;;18.82;85.15;101797.44;5060699;28;20020;-74
2022/08/25 04:22:43;;;;;;;81.68;78.25;;;;;;;18.76;86.08;101806.16;5080801;28;20036;-74
2022/08/25 04:25:09;;;;;;;83.07;79.57;;;;;;;18.72;86.07;101802.19;5078133;28;20028;-74
2022/08/25 04:27:35;;;;;;;89.43;85.85;;;;;;;18.70;86.33;101796.16;5080571;28;20123;-73
2022/08/25 04:30:01;;;;;;;81.20;77.50;;;;;;;18.60;86.05;101776.91;5075073;28;20455;-74
2022/08/25 04:32:26;;;;;;;86.53;82.75;;;;;;;18.68;86.80;101790.16;5059221;28;20111;-73
2022/08/25 04:34:52;;;;;;;91.78;87.93;;;;;;;18.58;86.35;101778.91;5078404;28;20031;-74
2022/08/25 04:37:17;;;;;;;88.50;84.82;;;;;;;18.64;87.09;101796.88;5074407;28;20045;-74
2022/08/25 04:39:42;;;;;;;89.65;85.68;;;;;;;18.63;87.08;101787.22;5081736;28;20458;-73
2022/08/25 04:42:08;;;;;;;87.45;83.80;;;;;;;18.58;86.23;101777.06;5068733;28;20032;-74
2022/08/25 04:44:33;;;;;;;83.35;80.00;;;;;;;18.60;86.31;101787.59;5070891;28;20100;-74
2022/08/25 04:47:00;;;;;;;92.93;89.18;;;;;;;18.55;86.68;101777.41;5070384;28;20493;-74
2022/08/25 04:49:26;;;;;;;92.05;88.22;;;;;;;18.63;86.82;101787.22;5059308;28;20070;-74
2022/08/25 04:51:52;;;;;;;101.63;97.32;;;;;;;18.67;86.43;101788.53;5071205;28;20044;-74
2022/08/25 04:54:20;;;;;;;93.70;89.90;;;;;;;18.56;86.78;101779.09;5071345;28;20488;-73
2022/08/25 04:56:47;;;;;;;87.78;83.95;;;;;;;18.70;86.98;101789.00;5072179;28;20036;-73
2022/08/25 04:59:15;;;;;;;93.35;89.55;;;;;;;18.72;87.17;101791.47;5068518;28;20385;-73
2022/08/25 05:01:45;;;;;;;90.55;86.78;;;;;;;18.73;86.28;101785.13;5071343;28;20055;-73
2022/08/25 05:04:13;;;;;;;98.75;94.00;;;;;;;18.73;86.20;101779.78;5073556;28;20089;-73
2022/08/25 05:06:39;;;;;;;102.38;98.07;;;;;;;18.79;86.87;101787.13;5070692;28;20485;-74
2022/08/25 05:09:05;;;;;;;103.18;98.80;;;;;;;18.81;86.00;101787.75;5072882;28;20062;-73
2022/08/25 05:11:31;;;;;;;102.93;98.60;;;;;;;18.86;86.75;101781.88;5073731;28;20331;-74
2022/08/25 05:13:58;;;;;;;101.15;97.00;;;;;;;18.87;85.98;101781.66;5074854;28;20050;-73
2022/08/25 05:16:25;;;;;;;97.75;93.78;;;;;;;18.89;86.62;101771.63;5073344;28;20043;-74
2022/08/25 05:18:51;;;;;;;102.45;98.22;;;;;;;18.95;86.43;101775.44;5073450;28;20059;-74
2022/08/25 05:21:20;;;;;;;97.63;93.25;;;;;;;18.98;86.96;101776.91;5056286;28;20034;-74
2022/08/25 05:23:46;;;;;;;100.53;96.18;;;;;;;19.03;86.00;101783.38;5076972;28;20032;-74
2022/08/25 05:26:18;;;;;;;101.28;97.03;;;;;;;19.10;86.04;101781.63;5070726;28;20043;-74
2022/08/25 05:28:45;;;;;;;99.75;95.72;;;;;;;19.08;86.74;101769.44;5068435;28;20074;-73
2022/08/25 05:31:12;;;;;;;105.07;100.53;;;;;;;19.16;86.62;101777.34;5081254;28;20027;-74
2022/08/25 05:33:39;;;;;;;103.03;98.82;;;;;;;19.24;86.00;101771.91;5080794;28;20400;-74
2022/08/25 05:36:06;;;;;;;105.20;100.72;;;;;;;19.36;85.22;101788.38;5074669;28;20560;-74
2022/08/25 05:38:32;;;;;;;99.93;95.60;;;;;;;19.43;85.91;101788.44;5070113;28;20052;-73
2022/08/25 05:41:02;;;;;;;102.65;98.53;;;;;;;19.41;85.47;101761.03;5074933;28;20032;-73
2022/08/25 05:43:28;;;;;;;101.43;97.10;;;;;;;19.55;85.14;101784.28;5074986;28;20024;-73
2022/08/25 05:45:56;;;;;;;97.15;93.10;;;;;;;19.61;85.65;101790.75;5074205;28;20400;-73
2022/08/25 05:48:22;;;;;;;91.10;87.22;;;;;;;19.62;85.51;101797.75;5069661;28;20032;-73
2022/08/25 05:50:52;;;;;;;93.53;89.50;;;;;;;19.67;85.21;101796.16;5074362;28;20023;-74
2022/08/25 05:53:18;;;;;;;92.35;88.22;;;;;;;19.74;85.05;101801.66;5072543;28;20112;-73
2022/08/25 05:55:44;;;;;;;97.78;93.00;;;;;;;19.79;84.62;101801.91;5070544;28;20060;-74
2022/08/25 05:58:10;;;;;;;94.03;90.03;;;;;;;19.82;84.66;101798.03;5070854;28;20059;-74
2022/08/25 06:00:37;;;;;;;90.90;87.00;;;;;;;19.84;84.95;101796.00;5069364;28;20068;-74
2022/08/25 06:03:02;;;;;;;96.05;91.85;;;;;;;19.89;84.97;101790.91;5070462;28;20119;-74
2022/08/25 06:05:28;;;;;;;85.88;82.22;;;;;;;19.95;84.76;101798.19;5074356;28;20032;-74
2022/08/25 06:07:54;;;;;;;84.10;79.78;;;;;;;19.98;84.79;101797.81;5071284;28;20451;-74
2022/08/25 06:10:20;;;;;;;84.78;81.18;;;;;;;20.03;84.46;101799.91;5070723;28;20459;-74
2022/08/25 06:12:46;;;;;;;83.53;79.75;;;;;;;20.08;84.66;101787.63;5071999;28;20013;-74
2022/08/25 06:15:14;;;;;;;79.40;75.90;;;;;;;20.20;83.91;101790.59;5074856;28;20111;-74
2022/08/25 06:17:41;;;;;;;81.75;78.15;;;;;;;20.25;84.16;101787.34;5076331;28;20035;-74
2022/08/25 06:20:12;;;;;;;76.22;72.30;;;;;;;20.36;83.91;101789.53;5070405;28;20349;-74
2022/08/25 06:22:39;;;;;;;78.47;74.82;;;;;;;20.45;83.46;101791.06;5068617;28;20059;-74
2022/08/25 06:25:06;;;;;;;83.85;80.28;;;;;;;20.52;83.44;101791.94;5052582;28;20220;-73
2022/08/25 06:27:32;;;;;;;76.18;72.68;;;;;;;20.47;82.70;101769.41;5065912;28;20063;-74
2022/08/25 06:29:57;;;;;;;72.75;69.45;;;;;;;20.59;82.10;101799.25;5069105;28;20040;-74
2022/08/25 06:32:23;;;;;;;73.63;70.03;;;;;;;20.59;82.23;101781.31;5067476;28;20059;-74
2022/08/25 06:34:48;;;;;;;72.68;69.47;;;;;;;20.73;81.92;101785.75;5071462;28;20024;-74
2022/08/25 06:37:14;;;;;;;73.18;69.47;;;;;;;20.70;81.57;101770.03;5069655;28;20058;-74
2022/08/25 06:39:39;;;;;;;66.70;63.78;;;;;;;20.88;81.23;101783.00;5055359;28;20540;-74
2022/08/25 06:42:04;;;;;;;62.45;59.70;;;;;;;20.98;81.50;101792.53;5073521;28;20454;-74
2022/08/25 06:44:30;;;;;;;62.88;60.08;;;;;;;21.17;81.28;101791.84;5074024;28;20497;-74
2022/08/25 06:46:56;;;;;;;66.03;62.90;;;;;;;21.25;79.96;101790.84;5071631;28;20032;-73
2022/08/25 06:49:21;;;;;;;67.90;64.80;;;;;;;21.37;79.93;101791.97;5076221;28;20472;-73
2022/08/25 06:51:49;;;;;;;61.15;58.45;;;;;;;21.35;79.02;101794.84;5074674;28;20027;-73
2022/08/25 06:54:14;;;;;;;59.22;56.42;;;;;;;21.34;79.46;101777.06;5076815;28;20031;-73
2022/08/25 06:56:40;;;;;;;55.05;52.22;;;;;;;21.46;78.85;101798.03;5078190;28;20028;-74
2022/08/25 06:59:07;;;;;;;55.15;52.65;;;;;;;21.57;79.44;101792.06;5072675;28;20813;-74
2022/08/25 07:01:33;;;;;;;53.47;50.90;;;;;;;21.86;78.01;101795.50;5076868;28;20026;-74
2022/08/25 07:04:01;;;;;;;56.28;53.78;;;;;;;22.13;77.35;101791.03;5077385;28;20040;-74
2022/08/25 07:06:29;;;;;;;80.13;76.72;;;;;;;22.66;75.86;101784.88;5080125;28;20032;-74
2022/08/25 07:08:55;;;;;;;47.13;44.90;;;;;;;23.17;73.29;101795.84;5075689;28;20329;-74
2022/08/25 07:11:20;;;;;;;44.95;43.15;;;;;;;23.57;72.16;101776.00;5076405;28;20024;-74
2022/08/25 07:13:47;;;;;;;52.08;49.60;;;;;;;23.86;70.90;101787.31;5076287;28;20028;-74
2022/08/25 07:16:16;;;;;;;40.00;38.05;;;;;;;24.36;70.35;101782.00;5075140;28;20698;-74
2022/08/25 07:18:43;;;;;;;30.73;29.17;;;;;;;24.63;69.34;101794.28;5076423;28;20028;-74
2022/08/25 07:21:08;;;;;;;37.95;36.13;;;;;;;24.78;69.23;101798.50;5075098;28;20056;-74
2022/08/25 07:23:34;;;;;;;35.47;33.72;;;;;;;25.55;66.04;101806.25;5076425;28;20127;-74
2022/08/25 07:26:16;;;;;;;31.70;30.15;;;;;;;25.75;65.84;101803.28;5077405;28;20113;-74
2022/08/25 07:28:42;;;;;;;32.40;30.85;;;;;;;25.81;65.38;101803.19;5079003;28;20029;-74
2022/08/25 07:31:07;;;;;;;31.58;30.08;;;;;;;26.45;64.35;101798.13;5076067;28;20567;-74
2022/08/25 07:33:33;;;;;;;34.60;33.00;;;;;;;26.38;63.71;101781.16;5076439;28;20029;-74
2022/08/25 07:35:58;;;;;;;32.92;31.15;;;;;;;26.51;63.95;101790.94;5080167;28;20396;-74
2022/08/25 07:38:24;;;;;;;30.42;28.83;;;;;;;26.59;63.86;101787.94;5080305;28;20548;-74
2022/08/25 07:40:53;;;;;;;30.30;28.85;;;;;;;27.05;62.13;101801.72;5073770;28;20032;-74
2022/08/25 07:43:20;;;;;;;28.40;27.08;;;;;;;27.04;63.09;101800.88;5077957;28;20024;-74
2022/08/25 07:45:47;;;;;;;27.65;26.35;;;;;;;26.84;61.48;101798.53;5075867;28;20044;-74
2022/08/25 07:48:14;;;;;;;27.65;26.35;;;;;;;26.81;62.72;101809.84;5073261;28;20119;-74
2022/08/25 07:50:42;;;;;;;24.98;23.83;;;;;;;26.70;62.15;101809.81;5076689;28;20028;-74
2022/08/25 07:53:09;;;;;;;25.95;24.73;;;;;;;27.47;61.29;101810.50;5077818;28;20048;-74
2022/08/25 07:55:35;;;;;;;34.90;33.20;;;;;;;28.06;59.59;101798.63;5078760;28;20491;-74
2022/08/25 07:58:01;;;;;;;29.70;27.98;;;;;;;27.83;60.12;101808.50;5072711;28;20024;-74
2022/08/25 08:00:28;;;;;;;32.67;30.98;;;;;;;27.75;59.57;101798.03;5075799;28;20316;-74
2022/08/25 08:02:55;;;;;;;29.52;28.15;;;;;;;27.87;59.76;101796.13;5073996;28;20041;-74
2022/08/25 08:05:21;;;;;;;30.90;29.30;;;;;;;29.18;58.13;101796.03;5072391;28;20464;-73
2022/08/25 08:07:46;;;;;;;31.60;30.08;;;;;;;28.53;58.32;101817.38;5076167;28;20046;-74
2022/08/25 08:10:14;;;;;;;30.52;28.92;;;;;;;28.91;57.43;101813.03;5076076;28;20096;-74
2022/08/25 08:12:41;;;;;;;35.22;33.53;;;;;;;29.27;57.29;101819.84;5075888;28;20016;-74
2022/08/25 08:15:08;;;;;;;32.05;30.60;;;;;;;29.69;55.68;101818.47;5075975;28;20113;-73
2022/08/25 08:17:34;;;;;;;34.33;32.83;;;;;;;29.79;55.31;101812.28;5075556;28;20028;-73
2022/08/25 08:19:59;;;;;;;38.25;36.53;;;;;;;30.65;53.85;101815.00;5071107;28;20031;-73
2022/08/25 08:22:25;;;;;;;35.47;33.78;;;;;;;30.35;53.45;101815.59;5075095;28;20043;-73
2022/08/25 08:24:51;;;;;;;33.45;31.95;;;;;;;29.97;53.94;101816.59;5071410;28;20031;-73
2022/08/25 08:27:16;;;;;;;36.28;34.58;;;;;;;29.86;55.08;101821.91;5073731;28;20059;-74
2022/08/25 08:29:42;;;;;;;35.42;33.65;;;;;;;30.20;53.97;101818.97;5078387;28;20064;-74
2022/08/25 08:32:12;;;;;;;37.35;35.20;;;;;;;29.65;55.24;101818.09;5061674;28;20023;-74
2022/08/25 08:34:39;;;;;;;34.45;32.85;;;;;;;30.34;54.46;101817.50;5078785;28;20035;-74
2022/08/25 08:37:05;;;;;;;33.63;31.92;;;;;;;30.57;53.49;101812.75;5074719;28;20832;-74
2022/08/25 08:39:31;;;;;;;38.97;37.38;;;;;;;30.69;52.87;101809.88;5076561;28;20522;-74
2022/08/25 08:42:18;;;;;;;36.85;35.05;;;;;;;30.75;53.08;101804.19;5072634;28;20020;-74
2022/08/25 08:44:43;;;;;;;33.90;32.00;;;;;;;30.85;53.04;101802.59;5077336;28;20032;-73
2022/08/25 08:47:31;;;;;;;37.43;35.43;;;;;;;30.53;53.29;101789.84;5075283;28;20020;-73
2022/08/25 08:50:15;;;;;;;34.05;32.25;;;;;;;30.73;53.43;101789.19;5075003;28;20273;-73
2022/08/25 08:52:54;;;;;;;35.35;33.88;;;;;;;31.88;52.29;101791.06;5075500;28;20039;-74
2022/08/25 08:55:51;;;;;;;37.03;35.40;;;;;;;31.73;51.89;101791.03;5073282;28;20187;-74
2022/08/25 08:58:21;;;;;;;40.95;38.95;;;;;;;33.26;50.01;101783.84;5031539;28;20049;-73
2022/08/25 09:00:51;;;;;;;37.95;36.10;;;;;;;33.41;49.32;101781.03;5035916;28;20198;-73
2022/08/25 09:03:26;;;;;;;40.67;38.83;;;;;;;34.56;46.99;101777.97;5033460;28;20393;-73
2022/08/25 09:05:56;;;;;;;46.33;44.22;;;;;;;34.50;47.55;101776.41;5030807;28;20048;-73
2022/08/25 09:08:21;;;;;;;42.25;40.45;;;;;;;33.78;47.92;101779.72;5034737;28;20099;-74
2022/08/25 09:11:01;;;;;;;41.83;39.97;;;;;;;33.81;48.08;101769.00;5035700;28;20052;-74
2022/08/25 09:13:56;;;;;;;41.40;39.60;;;;;;;33.74;48.62;101757.56;5032538;28;20553;-73
2022/08/25 09:16:53;;;;;;;44.50;42.45;;;;;;;35.63;46.90;101756.72;4966444;28;20459;-73
2022/08/25 09:19:40;;;;;;;46.35;44.08;;;;;;;35.10;45.44;101757.63;4966115;28;20109;-73
2022/08/25 09:22:18;;;;;;;45.00;42.80;;;;;;;34.83;45.80;101750.84;4966006;28;20301;-74
2022/08/25 09:25:02;;;;;;;44.53;42.55;;;;;;;34.25;47.83;101748.13;4965782;28;20038;-74
2022/08/25 09:27:42;;;;;;;43.30;41.33;;;;;;;34.98;46.33;101757.25;5056914;27;1268851;-72
2022/08/25 09:30:19;;;;;;;43.28;41.20;;;;;;;35.25;45.72;101736.63;5090441;28;20457;-72
2022/08/25 09:33:00;;;;;;;44.00;42.03;;;;;;;34.44;47.46;101725.50;5087881;28;20024;-72
2022/08/25 09:35:30;;;;;;;40.67;38.78;;;;;;;35.12;46.41;101730.72;5086908;28;20119;-73
2022/08/25 09:37:56;;;;;;;44.45;42.30;;;;;;;34.99;46.90;101724.03;5096314;28;20582;-73
2022/08/25 09:40:24;;;;;;;41.65;39.88;;;;;;;34.11;48.52;101720.59;5089867;28;20035;-73
2022/08/25 09:42:55;;;;;;;40.80;38.90;;;;;;;35.32;44.08;101709.63;5090093;28;20031;-73
2022/08/25 09:45:39;;;;;;;44.20;42.10;;;;;;;35.13;45.10;101704.97;5089835;28;20042;-73
2022/08/25 09:48:36;;;;;;;44.20;42.30;;;;;;;34.68;46.07;101709.91;5089615;28;20024;-73
2022/08/25 09:51:15;;;;;;;41.30;39.50;;;;;;;34.96;45.39;101704.63;5106623;28;20498;-72
2022/08/25 09:53:49;;;;;;;37.97;35.50;;;;;;;34.44;46.85;101709.06;5088060;28;20609;-72
2022/08/25 09:56:18;;;;;;;41.20;39.50;;;;;;;35.25;46.32;101681.75;5092869;28;20020;-72
2022/08/25 09:58:44;;;;;;;45.75;43.70;;;;;;;35.71;45.18;101697.53;5085480;28;20484;-72
2022/08/25 10:01:19;;;;;;;40.92;39.17;;;;;;;36.04;46.11;101696.41;5086041;28;20081;-72
2022/08/25 10:04:04;;;;;;;42.33;40.42;;;;;;;34.73;45.75;101679.66;5072111;28;20028;-72
2022/08/25 10:06:41;;;;;;;40.47;38.78;;;;;;;35.47;44.92;101690.19;5090157;28;20028;-72
2022/08/25 10:09:08;;;;;;;40.42;38.67;;;;;;;36.47;43.87;101675.31;5090442;28;20427;-73
2022/08/25 10:11:42;;;;;;;42.60;40.65;;;;;;;35.95;43.90;101678.97;5087568;28;20125;-72
2022/08/25 10:14:32;;;;;;;43.20;41.30;;;;;;;36.09;43.60;101675.47;5084500;28;20031;-72
2022/08/25 10:17:23;;;;;;;42.42;40.42;;;;;;;36.69;43.05;101682.84;5088393;28;20072;-72
2022/08/25 10:20:19;;;;;;;42.97;40.70;;;;;;;35.37;44.42;101671.16;5086930;28;20511;-73
2022/08/25 10:22:45;;;;;;;41.45;39.33;;;;;;;36.11;44.73;101667.75;5088049;28;20111;-73
2022/08/25 10:25:13;;;;;;;43.42;40.55;;;;;;;36.71;42.99;101670.41;5087249;28;20028;-72
2022/08/25 10:27:57;;;;;;;42.15;40.45;;;;;;;35.11;45.50;101657.78;5064892;28;20044;-72
2022/08/25 10:30:49;;;;;;;38.40;36.80;;;;;;;36.23;43.27;101665.31;5089220;28;20024;-72
2022/08/25 10:33:30;;;;;;;38.25;36.70;;;;;;;37.67;41.33;101663.84;5001627;28;20037;-72
2022/08/25 10:36:14;;;;;;;39.63;38.03;;;;;;;36.91;42.23;101657.34;5014684;28;20053;-72
2022/08/25 10:38:50;;;;;;;42.85;40.97;;;;;;;36.21;43.44;101645.56;5003812;28;20477;-72
2022/08/25 10:42:09;;;;;;;42.42;40.28;;;;;;;36.13;43.37;101635.28;5005186;28;20068;-73
2022/08/25 10:48:11;;;;;;;38.60;36.70;;;;;;;35.20;45.42;101616.81;4945206;29;20098;-72
2022/08/25 10:50:43;;;;;;;37.65;35.95;;;;;;;35.34;45.67;101634.13;4941233;29;20052;-72
2022/08/25 10:53:20;;;;;;;40.92;38.25;;;;;;;35.26;45.37;101623.84;4942789;29;20044;-72
2022/08/25 10:55:56;;;;;;;40.03;38.42;;;;;;;36.14;44.12;101631.44;4938310;29;20031;-72
2022/08/25 10:58:39;;;;;;;41.65;39.70;;;;;;;36.85;42.82;101627.22;4939716;29;20768;-72
2022/08/25 11:01:18;;;;;;;40.00;38.03;;;;;;;36.10;43.81;101616.63;4939865;29;20036;-72
2022/08/25 11:03:49;;;;;;;41.67;39.67;;;;;;;36.33;43.24;101623.09;4941507;29;20043;-72
2022/08/25 11:06:22;;;;;;;38.60;36.80;;;;;;;35.27;44.77;101606.25;4935790;29;20039;-72
2022/08/25 11:08:54;;;;;;;39.90;37.75;;;;;;;37.02;43.94;101614.72;4928281;29;20065;-72
2022/08/25 11:11:34;;;;;;;39.67;37.78;;;;;;;37.40;42.38;101614.41;4995003;28;20053;-72
2022/08/25 11:14:06;;;;;;;37.40;35.65;;;;;;;37.54;42.19;101617.06;5011511;28;20154;-72
2022/08/25 11:16:42;;;;;;;40.67;38.75;;;;;;;36.59;42.40;101607.69;5013838;28;20033;-72
2022/08/25 11:19:25;;;;;;;37.97;36.13;;;;;;;35.97;43.92;101619.06;5058456;28;20070;-72
2022/08/25 11:22:05;;;;;;;38.00;36.42;;;;;;;35.76;44.11;101610.41;5067880;28;20385;-72
2022/08/25 11:24:41;;;;;;;36.78;35.17;;;;;;;36.93;42.13;101608.34;5076064;28;20338;-72
2022/08/25 11:27:17;;;;;;;38.65;36.95;;;;;;;36.77;42.79;101605.94;5060883;28;20046;-72
2022/08/25 11:29:56;;;;;;;36.42;34.70;;;;;;;35.29;44.00;101595.00;5078393;28;20103;-72